Time;durP1;ratioP1;P1;durP2;ratioP2;P2;SDS_P1;SDS_P2;PMS_P1;PMS_P2;Temp;Humidity;BMP_temperature;BMP_pressure;BME280_temperature;BME280_humidity;BME280_pressure;Samples;Min_cycle;Max_cycle;Signal;HPM_P1;HPM_P2
2022/02/08 00:00:11;;;;;;;1931.28;999.90;;;;;;;2.78;100.00;101523.19;5038882;28;20045;-82
2022/02/08 00:02:49;;;;;;;1924.70;999.90;;;;;;;2.83;100.00;101523.34;5031148;28;20061;-83
2022/02/08 00:05:24;;;;;;;1905.20;999.90;;;;;;;2.89;100.00;101525.22;5034024;28;20054;-82
2022/02/08 00:07:57;;;;;;;1876.40;999.90;;;;;;;2.81;100.00;101517.38;5035130;28;20045;-82
2022/02/08 00:10:30;;;;;;;1853.55;999.90;;;;;;;2.83;100.00;101529.59;5034371;28;20044;-82
2022/02/08 00:13:05;;;;;;;1833.97;999.90;;;;;;;2.76;100.00;101530.59;5037853;28;20052;-82
2022/02/08 00:15:33;;;;;;;1842.45;999.90;;;;;;;2.80;100.00;101515.72;5045587;28;20064;-82
2022/02/08 00:18:07;;;;;;;1834.28;999.90;;;;;;;2.58;100.00;101504.34;5040943;28;20049;-83
2022/02/08 00:20:40;;;;;;;1821.13;999.90;;;;;;;2.62;100.00;101527.91;5048015;28;20049;-82
2022/02/08 00:23:13;;;;;;;1839.75;999.90;;;;;;;2.69;100.00;101514.47;5029894;28;20529;-82
2022/02/08 00:25:41;;;;;;;1839.38;999.90;;;;;;;2.63;100.00;101505.38;5041131;28;20060;-83
2022/02/08 00:28:16;;;;;;;1836.05;999.90;;;;;;;2.74;100.00;101506.63;5022573;28;20046;-82
2022/02/08 00:30:49;;;;;;;1831.93;999.90;;;;;;;2.64;100.00;101511.59;5039655;28;20057;-82
2022/02/08 00:33:22;;;;;;;1816.88;999.90;;;;;;;2.61;100.00;101510.16;5025259;28;20053;-82
2022/02/08 00:35:55;;;;;;;1820.60;999.90;;;;;;;2.52;100.00;101503.31;5034436;28;20049;-82
2022/02/08 00:38:31;;;;;;;1807.70;999.90;;;;;;;2.58;100.00;101502.47;5029044;28;20052;-82
2022/02/08 00:41:01;;;;;;;1815.55;999.90;;;;;;;2.57;100.00;101494.63;5020002;28;20041;-83
2022/02/08 00:43:45;;;;;;;1799.45;999.90;;;;;;;2.53;100.00;101486.97;5032360;28;20119;-82
2022/02/08 00:46:24;;;;;;;1760.18;999.90;;;;;;;2.46;100.00;101479.94;5033144;28;20068;-82
2022/02/08 00:49:00;;;;;;;1776.80;999.90;;;;;;;2.51;100.00;101483.69;5027904;28;20806;-82
2022/02/08 00:51:40;;;;;;;1771.07;999.90;;;;;;;2.45;100.00;101475.63;5038231;28;20386;-82
2022/02/08 00:54:17;;;;;;;1764.43;999.90;;;;;;;2.51;100.00;101480.16;5029134;28;20053;-82
2022/02/08 00:56:50;;;;;;;1765.05;999.90;;;;;;;2.48;100.00;101472.50;5049129;28;20073;-83
2022/02/08 00:59:25;;;;;;;1751.78;999.90;;;;;;;2.57;100.00;101473.13;5037647;28;20053;-82
2022/02/08 01:01:58;;;;;;;1747.28;999.90;;;;;;;2.53;100.00;101460.09;5030902;28;20095;-82
2022/02/08 01:04:32;;;;;;;1748.00;999.90;;;;;;;2.56;100.00;101456.19;5022523;28;20050;-82
2022/02/08 01:07:06;;;;;;;1738.97;999.90;;;;;;;2.62;100.00;101455.34;5033853;28;20041;-82
2022/02/08 01:09:47;;;;;;;1709.55;999.90;;;;;;;2.58;100.00;101461.34;5023602;28;20049;-83
2022/02/08 01:12:16;;;;;;;1697.43;999.90;;;;;;;2.62;100.00;101454.53;5033175;28;20037;-82
2022/02/08 01:14:53;;;;;;;1667.38;999.90;;;;;;;2.43;100.00;101453.50;5031668;28;20072;-82
2022/02/08 01:17:28;;;;;;;1652.83;999.90;;;;;;;2.46;100.00;101455.75;5035347;28;20410;-82
2022/02/08 01:20:06;;;;;;;1633.90;999.90;;;;;;;2.30;100.00;101443.56;5030415;28;20751;-82
2022/02/08 01:22:41;;;;;;;1634.70;999.90;;;;;;;2.28;100.00;101449.16;5035672;28;20045;-82
2022/02/08 01:25:20;;;;;;;1637.85;999.90;;;;;;;2.35;100.00;101447.28;5029820;28;20053;-82
2022/02/08 01:27:57;;;;;;;1635.38;999.90;;;;;;;2.27;100.00;101452.06;5033436;28;20502;-82
2022/02/08 01:30:44;;;;;;;1623.85;999.90;;;;;;;2.33;100.00;101449.34;5047960;28;20394;-82
2022/02/08 01:33:34;;;;;;;1616.28;999.90;;;;;;;2.28;100.00;101441.09;5053900;28;20053;-82
2022/02/08 01:38:59;;;;;;;1606.03;999.90;;;;;;;2.21;100.00;101438.41;5023897;28;20330;-82
2022/02/08 01:41:46;;;;;;;1600.18;999.90;;;;;;;2.02;100.00;101421.22;5030820;28;20049;-82
2022/02/08 01:44:27;;;;;;;1625.50;999.90;;;;;;;2.14;100.00;101415.25;5026702;28;20046;-82
2022/02/08 01:47:15;;;;;;;1622.30;999.90;;;;;;;2.13;100.00;101419.81;5034020;28;20049;-82
2022/02/08 01:50:00;;;;;;;1637.50;999.90;;;;;;;2.14;100.00;101404.50;5030386;28;20502;-82
2022/02/08 01:52:33;;;;;;;1646.82;999.90;;;;;;;2.17;100.00;101406.81;5025701;28;20410;-83
2022/02/08 01:55:10;;;;;;;1648.72;999.90;;;;;;;2.24;100.00;101413.00;5032902;28;20054;-83
2022/02/08 01:57:46;;;;;;;1641.57;999.90;;;;;;;2.16;100.00;101403.28;5029872;28;20072;-82
2022/02/08 02:00:20;;;;;;;1654.60;999.90;;;;;;;2.14;100.00;101394.63;5028207;28;20054;-82
2022/02/08 02:02:55;;;;;;;1668.95;999.90;;;;;;;2.31;100.00;101403.06;5028866;28;20045;-82
2022/02/08 02:05:34;;;;;;;1683.57;999.90;;;;;;;2.42;100.00;101393.56;5065685;28;20045;-82
2022/02/08 02:08:09;;;;;;;1701.68;999.90;;;;;;;2.60;100.00;101402.88;5029514;28;20056;-81
2022/02/08 02:10:45;;;;;;;1694.70;999.90;;;;;;;2.60;100.00;101389.44;5031682;28;20041;-82
2022/02/08 02:13:34;;;;;;;1704.22;999.90;;;;;;;2.69;100.00;101380.94;5030991;28;20037;-82
2022/02/08 02:16:14;;;;;;;1717.28;999.90;;;;;;;2.76;100.00;101385.44;5027393;28;20045;-82
2022/02/08 02:18:49;;;;;;;1707.97;999.90;;;;;;;2.76;100.00;101383.56;5034252;28;20068;-82
2022/02/08 02:21:27;;;;;;;1718.18;999.90;;;;;;;2.85;100.00;101382.31;5017756;28;20049;-82
2022/02/08 02:24:02;;;;;;;1713.57;999.90;;;;;;;2.84;100.00;101369.09;5032261;28;20402;-82
2022/02/08 02:26:35;;;;;;;1699.63;999.90;;;;;;;2.84;100.00;101382.53;5019739;28;20049;-82
2022/02/08 02:29:09;;;;;;;1702.32;999.90;;;;;;;2.79;100.00;101353.63;5024079;28;20049;-82
2022/02/08 02:31:44;;;;;;;1721.20;999.90;;;;;;;2.83;100.00;101354.84;5023970;28;20049;-82
2022/02/08 02:34:18;;;;;;;1731.93;999.90;;;;;;;2.79;100.00;101363.53;5038514;28;20511;-82
2022/02/08 02:36:53;;;;;;;1750.45;999.90;;;;;;;2.82;100.00;101355.06;5033100;28;20517;-82
2022/02/08 02:39:27;;;;;;;1758.47;999.90;;;;;;;2.86;100.00;101361.66;5062381;28;20528;-82
2022/02/08 02:42:11;;;;;;;1775.45;999.90;;;;;;;2.79;100.00;101356.31;5028887;28;20144;-82
2022/02/08 02:44:40;;;;;;;1811.65;999.90;;;;;;;2.78;100.00;101359.19;5034467;28;20049;-82
2022/02/08 02:47:14;;;;;;;1817.65;999.90;;;;;;;2.74;100.00;101350.72;5062511;28;20054;-81
2022/02/08 02:49:47;;;;;;;1855.80;999.90;;;;;;;2.71;100.00;101343.09;5030563;28;20106;-82
2022/02/08 02:52:21;;;;;;;1872.28;999.90;;;;;;;2.74;100.00;101334.59;5025791;28;20053;-83
2022/02/08 02:55:00;;;;;;;1893.72;999.90;;;;;;;2.67;100.00;101331.94;5025990;28;20600;-83
2022/02/08 02:57:34;;;;;;;1906.63;999.90;;;;;;;2.75;100.00;101333.56;5031130;28;20045;-83
2022/02/08 03:00:08;;;;;;;1910.70;999.90;;;;;;;2.70;100.00;101336.06;5029951;28;20041;-82
2022/02/08 03:02:48;;;;;;;1919.40;999.90;;;;;;;2.67;100.00;101333.81;5019059;28;20054;-82
2022/02/08 03:05:29;;;;;;;1945.68;999.90;;;;;;;2.61;100.00;101334.63;5033887;28;20046;-82
2022/02/08 03:19:26;;;;;;;1999.90;999.90;;;;;;;2.71;100.00;101327.78;5034400;28;20045;-82
2022/02/08 03:21:59;;;;;;;1999.90;999.90;;;;;;;2.67;100.00;101325.75;5029343;28;20057;-82
2022/02/08 03:24:28;;;;;;;1999.90;999.90;;;;;;;2.58;100.00;101297.44;5050282;28;20045;-82
2022/02/08 03:26:59;;;;;;;1999.90;999.90;;;;;;;2.67;100.00;101313.09;5030256;28;20058;-82
2022/02/08 03:29:33;;;;;;;1999.90;999.90;;;;;;;2.70;100.00;101309.19;5048021;28;20042;-82
2022/02/08 03:32:07;;;;;;;1999.90;999.90;;;;;;;2.77;100.00;101322.59;5039341;28;20446;-82
2022/02/08 03:34:40;;;;;;;1999.90;999.90;;;;;;;2.82;100.00;101306.66;5047459;28;20048;-82
2022/02/08 03:37:09;;;;;;;1999.90;999.90;;;;;;;2.89;100.00;101315.53;5035248;28;20050;-82
2022/02/08 03:39:45;;;;;;;1999.90;999.90;;;;;;;2.80;100.00;101309.53;5039370;28;20045;-83
2022/02/08 03:42:29;;;;;;;1999.90;999.90;;;;;;;2.89;100.00;101313.66;5034426;28;20064;-82
2022/02/08 03:45:11;;;;;;;1999.90;999.90;;;;;;;2.93;100.00;101311.38;5036791;28;20409;-83
2022/02/08 03:47:44;;;;;;;1999.90;999.90;;;;;;;2.83;100.00;101286.78;5025325;28;20064;-82
2022/02/08 03:50:17;;;;;;;1999.90;999.90;;;;;;;2.97;100.00;101301.84;5030115;28;20051;-82
2022/02/08 03:52:51;;;;;;;1999.90;999.90;;;;;;;2.99;100.00;101283.63;5065604;28;20421;-81
2022/02/08 03:55:24;;;;;;;1999.90;999.90;;;;;;;3.03;100.00;101290.22;5028791;28;20052;-82
2022/02/08 03:57:53;;;;;;;1999.90;999.90;;;;;;;3.04;100.00;101283.81;5039637;28;20051;-82
2022/02/08 04:00:24;;;;;;;1999.90;999.90;;;;;;;3.10;100.00;101298.25;5027050;28;20494;-82
2022/02/08 04:02:58;;;;;;;1999.90;999.90;;;;;;;3.15;100.00;101278.78;5038870;28;20490;-82
2022/02/08 04:05:35;;;;;;;1999.90;999.90;;;;;;;3.14;100.00;101261.81;5039072;28;20374;-82
2022/02/08 04:08:12;;;;;;;1999.90;999.90;;;;;;;3.20;100.00;101268.19;5033608;28;20046;-82
2022/02/08 04:10:45;;;;;;;1999.90;999.90;;;;;;;3.16;100.00;101269.69;5034052;28;20045;-82
2022/02/08 04:13:24;;;;;;;1999.90;999.90;;;;;;;3.25;100.00;101265.69;5039496;28;20058;-82
2022/02/08 04:16:07;;;;;;;1999.90;999.90;;;;;;;3.32;100.00;101274.53;5036742;28;20057;-82
2022/02/08 04:18:50;;;;;;;1999.90;999.90;;;;;;;3.27;100.00;101289.69;5034513;28;20053;-82
2022/02/08 04:32:46;;;;;;;1999.90;999.90;;;;;;;3.40;100.00;101271.59;5041405;28;20045;-82
2022/02/08 04:35:39;;;;;;;1999.90;999.90;;;;;;;3.45;100.00;101270.13;5032927;28;20060;-82
2022/02/08 04:38:31;;;;;;;1999.90;999.90;;;;;;;3.49;100.00;101261.38;5033677;28;20065;-82
2022/02/08 04:41:04;;;;;;;1999.90;999.90;;;;;;;3.56;100.00;101255.94;5031201;28;20058;-82
2022/02/08 04:43:45;;;;;;;1999.90;999.90;;;;;;;3.59;100.00;101258.22;5035673;28;20053;-82
2022/02/08 04:46:27;;;;;;;1999.90;999.90;;;;;;;3.19;100.00;101197.47;5035323;28;20053;-82
2022/02/08 04:49:00;;;;;;;1999.90;999.90;;;;;;;3.60;100.00;101264.44;5043147;28;20072;-82
2022/02/08 04:51:33;;;;;;;1999.90;999.90;;;;;;;3.64;100.00;101257.56;5035186;28;20052;-82
2022/02/08 04:54:13;;;;;;;1999.90;999.90;;;;;;;3.60;100.00;101253.66;5034783;28;20053;-82
2022/02/08 04:56:57;;;;;;;1999.90;999.90;;;;;;;3.74;100.00;101272.19;5032624;28;20054;-82
2022/02/08 04:59:54;;;;;;;1999.90;999.90;;;;;;;3.72;100.00;101251.91;5044111;28;20072;-83
2022/02/08 05:37:15;;;;;;;1999.90;999.90;;;;;;;4.28;100.00;101228.59;5031291;28;20049;-82
2022/02/08 05:42:44;;;;;;;1999.90;999.90;;;;;;;4.37;100.00;101239.88;5039466;28;20057;-82
2022/02/08 05:45:25;;;;;;;1999.90;999.90;;;;;;;4.35;100.00;101220.41;5030013;28;20072;-82
2022/02/08 05:48:02;;;;;;;1999.90;999.90;;;;;;;4.40;100.00;101236.72;5041926;28;20489;-82
2022/02/08 05:50:42;;;;;;;1999.90;999.90;;;;;;;4.43;100.00;101226.34;5031316;28;20061;-82
2022/02/08 05:53:28;;;;;;;1999.90;999.90;;;;;;;4.46;100.00;101238.53;5038629;28;20064;-82
2022/02/08 05:56:01;;;;;;;1999.90;999.90;;;;;;;4.50;100.00;101220.03;5045235;28;20053;-82
2022/02/08 05:58:34;;;;;;;1999.90;999.90;;;;;;;4.48;100.00;101200.59;5034065;28;20076;-83
2022/02/08 06:01:02;;;;;;;1999.90;999.90;;;;;;;4.59;100.00;101200.63;5035077;28;20053;-82
2022/02/08 06:03:51;;;;;;;1999.90;999.90;;;;;;;4.65;100.00;101187.28;5057242;28;20050;-82
2022/02/08 06:06:25;;;;;;;1999.90;999.90;;;;;;;4.76;100.00;101176.56;5037180;28;20041;-82
2022/02/08 06:09:00;;;;;;;1999.90;999.90;;;;;;;4.82;100.00;101163.19;5035702;28;20057;-82
2022/02/08 06:11:35;;;;;;;1999.90;999.90;;;;;;;4.79;100.00;101148.31;5028173;28;20053;-82
2022/02/08 06:14:10;;;;;;;;;;;;;;;4.91;100.00;101159.94;5022209;28;20485;-82
2022/02/08 06:16:44;;;;;;;1999.90;999.90;;;;;;;4.91;100.00;101168.03;5063730;28;19925;-83
2022/02/08 06:19:12;;;;;;;1999.90;999.90;;;;;;;4.98;100.00;101170.66;5027978;28;20510;-82
2022/02/08 06:21:40;;;;;;;1999.90;999.90;;;;;;;4.99;100.00;101180.38;5028747;28;20490;-82
2022/02/08 06:24:15;;;;;;;1999.90;999.90;;;;;;;5.02;100.00;101179.09;5025580;28;20046;-81
2022/02/08 06:26:48;;;;;;;1999.90;999.90;;;;;;;5.09;100.00;101177.94;5031455;28;20402;-82
2022/02/08 06:29:23;;;;;;;1999.90;999.90;;;;;;;5.03;100.00;101180.75;5025742;28;20060;-82
2022/02/08 06:31:51;;;;;;;1999.90;999.90;;;;;;;5.08;100.00;101197.91;5046200;28;20497;-82
2022/02/08 06:34:22;;;;;;;1999.90;999.90;;;;;;;5.06;100.00;101172.19;5031601;28;20405;-83
2022/02/08 06:37:01;;;;;;;1999.90;999.90;;;;;;;5.07;100.00;101184.66;5028249;28;20045;-83
2022/02/08 06:39:38;;;;;;;1999.90;999.90;;;;;;;5.17;100.00;101189.47;5029057;28;20053;-80
2022/02/08 06:42:14;;;;;;;1999.90;999.90;;;;;;;5.13;100.00;101185.59;5029026;28;20730;-87
2022/02/08 06:44:47;;;;;;;1999.90;999.90;;;;;;;5.22;100.00;101197.69;5026196;28;20049;-82
2022/02/08 06:47:20;;;;;;;1999.90;999.90;;;;;;;5.24;100.00;101182.09;5024717;28;20061;-82
2022/02/08 06:49:54;;;;;;;1999.90;999.90;;;;;;;5.23;100.00;101191.22;5026224;28;20322;-82
2022/02/08 06:52:22;;;;;;;1999.90;999.90;;;;;;;5.32;100.00;101195.25;5034174;28;20041;-82
2022/02/08 06:55:00;;;;;;;1999.90;999.90;;;;;;;5.31;100.00;101190.09;5035420;28;20053;-82
2022/02/08 06:57:48;;;;;;;1999.90;999.90;;;;;;;5.28;100.00;101188.66;5027797;28;20057;-82
2022/02/08 07:00:28;;;;;;;1999.90;999.90;;;;;;;5.35;100.00;101183.19;5030140;28;20056;-82
2022/02/08 07:03:04;;;;;;;1999.90;999.90;;;;;;;5.31;100.00;101184.69;5019818;28;20063;-82
2022/02/08 07:05:33;;;;;;;1999.90;999.90;;;;;;;5.30;100.00;101183.03;5058815;28;20119;-83
2022/02/08 07:08:01;;;;;;;1999.90;999.90;;;;;;;5.35;100.00;101189.38;5028695;28;20053;-83
2022/02/08 07:10:36;;;;;;;1999.90;999.90;;;;;;;5.36;100.00;101184.78;5038233;28;20053;-82
2022/02/08 07:13:09;;;;;;;1999.90;999.90;;;;;;;5.36;100.00;101179.41;5026529;28;20498;-82
2022/02/08 07:15:43;;;;;;;1999.90;999.90;;;;;;;5.42;100.00;101179.28;5027419;28;20045;-83
2022/02/08 07:18:16;;;;;;;1999.90;999.90;;;;;;;5.43;100.00;101183.66;5029415;28;20433;-82
2022/02/08 07:20:44;;;;;;;1999.90;999.90;;;;;;;5.48;100.00;101187.53;5028572;28;20064;-83
2022/02/08 07:23:17;;;;;;;1999.90;999.90;;;;;;;5.51;100.00;101184.34;5030651;28;20045;-83
2022/02/08 07:25:54;;;;;;;1999.90;999.90;;;;;;;5.50;100.00;101175.44;5069443;28;20481;-83
2022/02/08 07:28:27;;;;;;;1999.90;999.90;;;;;;;5.45;100.00;101175.31;5027254;28;20049;-82
2022/02/08 07:31:07;;;;;;;1999.90;999.90;;;;;;;5.53;100.00;101176.84;5020059;28;20034;-82
2022/02/08 07:33:44;;;;;;;1999.90;999.90;;;;;;;5.53;100.00;101171.44;5024667;28;20049;-83
2022/02/08 07:36:22;;;;;;;1999.90;999.90;;;;;;;5.57;100.00;101178.03;5027405;28;20249;-84
2022/02/08 07:38:51;;;;;;;1999.90;999.90;;;;;;;5.53;100.00;101164.16;5028358;28;20057;-83
2022/02/08 07:41:38;;;;;;;1999.90;999.90;;;;;;;5.57;100.00;101169.94;5013973;28;20045;-83
2022/02/08 07:44:13;;;;;;;1999.90;999.90;;;;;;;5.61;100.00;101168.41;5018459;28;20500;-84
2022/02/08 07:46:51;;;;;;;1999.90;999.90;;;;;;;5.66;100.00;101168.50;5038571;28;20374;-85
2022/02/08 07:49:24;;;;;;;1999.90;999.90;;;;;;;5.61;100.00;101171.91;5008967;28;20057;-83
2022/02/08 07:51:57;;;;;;;1999.90;999.90;;;;;;;5.62;100.00;101164.63;5002453;28;20065;-83
2022/02/08 07:54:26;;;;;;;1999.90;999.90;;;;;;;5.65;100.00;101166.88;5006042;28;20581;-82
2022/02/08 07:56:55;;;;;;;1999.90;999.90;;;;;;;5.69;100.00;101167.22;5009279;28;20060;-83
2022/02/08 07:59:28;;;;;;;1999.90;999.90;;;;;;;5.67;100.00;101167.44;5016299;28;20092;-83
2022/02/08 08:01:57;;;;;;;1999.90;999.90;;;;;;;5.65;100.00;101164.19;5011073;28;20053;-83
2022/02/08 08:04:27;;;;;;;1999.90;999.90;;;;;;;5.66;100.00;101155.00;5007762;28;20065;-84
2022/02/08 08:06:55;;;;;;;1999.90;999.90;;;;;;;5.71;100.00;101157.81;5011162;28;20049;-84
2022/02/08 08:09:28;;;;;;;1999.90;999.90;;;;;;;5.67;100.00;101153.94;5011337;28;20057;-83
2022/02/08 08:12:03;;;;;;;1999.90;999.90;;;;;;;5.71;100.00;101160.53;5018542;28;20053;-83
2022/02/08 08:14:37;;;;;;;1999.90;999.90;;;;;;;5.74;100.00;101160.03;5010634;28;20846;-83
2022/02/08 08:17:37;;;;;;;1999.90;999.90;;;;;;;5.73;100.00;101166.53;5008868;28;20049;-82
2022/02/08 08:20:10;;;;;;;1999.90;999.90;;;;;;;5.76;100.00;101152.53;5013781;28;20049;-84
2022/02/08 08:22:43;;;;;;;1999.90;999.90;;;;;;;5.74;100.00;101161.94;5008540;28;20038;-83
2022/02/08 08:25:16;;;;;;;1999.90;999.90;;;;;;;5.94;100.00;101154.28;5007514;28;20049;-83
2022/02/08 08:27:46;;;;;;;1999.90;999.90;;;;;;;5.88;100.00;101151.72;5010929;28;20052;-84
2022/02/08 08:30:20;;;;;;;1999.90;999.90;;;;;;;5.90;100.00;101134.22;5024199;28;20114;-83
2022/02/08 08:32:54;;;;;;;1999.90;999.90;;;;;;;5.82;100.00;101148.06;5015089;28;20065;-83
2022/02/08 08:35:23;;;;;;;1999.90;999.90;;;;;;;5.98;100.00;101146.56;5015506;28;20350;-83
2022/02/08 08:38:03;;;;;;;1999.90;999.90;;;;;;;5.93;100.00;101160.75;5017021;28;20497;-83
2022/02/08 08:40:49;;;;;;;1999.90;999.90;;;;;;;6.00;100.00;101157.13;5012000;28;20060;-84
2022/02/08 08:43:46;;;;;;;1999.90;999.90;;;;;;;5.98;100.00;101161.94;5000920;28;20072;-84
2022/02/08 08:49:27;;;;;;;1999.90;999.90;;;;;;;5.97;100.00;101150.28;4960275;28;20411;-83
2022/02/08 08:51:57;;;;;;;1999.90;999.90;;;;;;;5.97;100.00;101153.00;5016599;28;20071;-83
2022/02/08 08:54:25;;;;;;;1999.90;999.90;;;;;;;5.96;100.00;101157.56;5000720;28;20057;-82
2022/02/08 08:56:58;;;;;;;1999.90;999.90;;;;;;;5.99;100.00;101158.19;4999084;28;20057;-84
2022/02/08 08:59:33;;;;;;;1999.90;999.90;;;;;;;6.07;100.00;101155.94;5006064;28;20060;-83
2022/02/08 09:02:06;;;;;;;1999.90;999.90;;;;;;;6.04;100.00;101153.72;5000366;28;20060;-83
2022/02/08 09:04:43;;;;;;;1999.90;999.90;;;;;;;6.10;100.00;101151.94;5008948;28;20041;-83
2022/02/08 09:07:17;;;;;;;1999.90;999.90;;;;;;;6.07;100.00;101155.94;5003491;28;20413;-83
2022/02/08 09:09:55;;;;;;;1999.90;999.90;;;;;;;6.08;100.00;101154.88;5000846;28;20064;-82
2022/02/08 09:12:51;;;;;;;1999.90;999.90;;;;;;;6.09;100.00;101156.53;5003352;28;20056;-83
2022/02/08 09:15:46;;;;;;;1999.90;999.90;;;;;;;6.09;100.00;101143.03;4996230;28;20061;-83
2022/02/08 09:18:44;;;;;;;1999.90;999.90;;;;;;;6.15;100.00;101152.06;5006155;28;20058;-83
2022/02/08 09:29:50;;;;;;;1999.90;999.90;;;;;;;6.30;100.00;101156.97;4997584;28;20064;-84
2022/02/08 09:32:28;;;;;;;1999.90;999.90;;;;;;;6.34;100.00;101146.47;5000949;28;20058;-84
2022/02/08 09:35:02;;;;;;;1999.90;999.90;;;;;;;6.39;100.00;101141.97;5003603;28;20045;-84
2022/02/08 09:37:30;;;;;;;1999.90;999.90;;;;;;;6.40;100.00;101134.72;5002966;28;20049;-84
2022/02/08 09:40:05;;;;;;;1999.90;999.90;;;;;;;6.38;100.00;101134.94;5013827;28;20406;-84
2022/02/08 09:42:40;;;;;;;1999.90;999.90;;;;;;;6.46;100.00;101137.28;5004719;28;20057;-84
2022/02/08 09:45:13;;;;;;;1999.90;999.90;;;;;;;6.50;100.00;101134.09;5003314;28;20049;-85
2022/02/08 09:47:50;;;;;;;1999.90;999.90;;;;;;;6.55;100.00;101142.31;4998166;28;20060;-84
2022/02/08 09:50:27;;;;;;;1999.90;999.90;;;;;;;6.60;100.00;101147.78;5003138;28;20053;-85
2022/02/08 09:53:02;;;;;;;1999.90;999.90;;;;;;;6.57;100.00;101146.41;5006665;28;20049;-84
2022/02/08 09:55:36;;;;;;;1999.90;999.90;;;;;;;6.48;100.00;101150.56;4997408;28;20057;-84
2022/02/08 09:58:05;;;;;;;1999.90;999.90;;;;;;;6.65;100.00;101158.72;4995655;28;20053;-84
2022/02/08 10:00:40;;;;;;;1999.90;999.90;;;;;;;6.70;100.00;101155.25;5003764;28;20041;-84
2022/02/08 10:03:12;;;;;;;1999.90;999.90;;;;;;;6.80;100.00;101147.34;5002374;28;20491;-84
2022/02/08 10:05:46;;;;;;;1999.90;999.90;;;;;;;6.80;100.00;101141.94;4996769;28;20514;-84
2022/02/08 10:08:21;;;;;;;1999.90;999.90;;;;;;;6.87;100.00;101123.66;5005722;28;20049;-83
2022/02/08 10:10:50;;;;;;;1999.90;999.90;;;;;;;6.84;100.00;101132.28;5001008;28;20057;-84
2022/02/08 10:13:40;;;;;;;1999.90;999.90;;;;;;;6.91;100.00;101154.59;5007728;28;20052;-84
2022/02/08 10:20:02;;;;;;;1999.90;999.90;;;;;;;6.97;100.00;101163.59;5000722;28;20049;-83
2022/02/08 10:22:31;;;;;;;1999.90;999.90;;;;;;;6.98;100.00;101173.38;5003297;28;20429;-84
2022/02/08 10:25:06;;;;;;;1999.90;999.90;;;;;;;6.98;100.00;101167.97;5001122;28;20045;-84
2022/02/08 10:27:37;;;;;;;1999.90;999.90;;;;;;;7.03;100.00;101173.47;5006203;28;20056;-83
2022/02/08 10:30:42;;;;;;;1999.90;999.90;;;;;;;7.06;100.00;101170.28;5001532;28;20061;-82
2022/02/08 10:39:06;;;;;;;1999.90;999.90;;;;;;;7.07;100.00;101177.34;5011873;28;20718;-84
2022/02/08 10:41:46;;;;;;;1999.90;999.90;;;;;;;7.14;100.00;101182.59;5008097;28;20041;-83
2022/02/08 10:44:15;;;;;;;1999.90;999.90;;;;;;;7.31;100.00;101169.06;5024673;28;20061;-83
2022/02/08 10:46:43;;;;;;;1999.90;999.90;;;;;;;7.33;100.00;101161.50;5007126;28;20057;-82
2022/02/08 10:49:16;;;;;;;1999.90;999.90;;;;;;;7.38;100.00;101167.00;5013556;28;20535;-84
2022/02/08 10:51:54;;;;;;;1999.90;999.90;;;;;;;7.39;100.00;101176.78;5013062;28;20060;-84
2022/02/08 10:54:34;;;;;;;1999.90;999.90;;;;;;;7.39;100.00;101184.06;5017908;28;20053;-83
2022/02/08 10:57:12;;;;;;;1999.90;999.90;;;;;;;7.34;100.00;101182.09;5016912;28;20058;-83
2022/02/08 10:59:55;;;;;;;1999.90;999.90;;;;;;;7.41;100.00;101192.78;5016383;28;20048;-84
2022/02/08 11:02:36;;;;;;;1999.90;999.90;;;;;;;7.32;100.00;101179.66;5008723;28;20050;-84
2022/02/08 11:05:18;;;;;;;1999.90;999.90;;;;;;;7.34;100.00;101194.84;5009021;28;20084;-83
2022/02/08 11:08:11;;;;;;;;;;;;;;;7.40;100.00;101181.13;5010530;28;20064;-84
2022/02/08 11:13:57;;;;;;;1999.90;999.90;;;;;;;7.32;100.00;101179.66;5007990;28;20060;-84
2022/02/08 11:16:44;;;;;;;1999.90;999.90;;;;;;;7.46;100.00;101195.56;5010661;28;20056;-83
2022/02/08 11:19:26;;;;;;;1999.90;999.90;;;;;;;7.52;100.00;101180.22;5008645;28;20058;-83
2022/02/08 11:22:03;;;;;;;1999.90;999.90;;;;;;;7.46;100.00;101187.44;5009407;28;20064;-83
2022/02/08 11:24:41;;;;;;;1999.90;999.90;;;;;;;7.48;100.00;101199.69;5003973;28;20060;-83
2022/02/08 11:27:18;;;;;;;1999.90;999.90;;;;;;;7.43;100.00;101194.19;5007156;28;20979;-83
2022/02/08 11:29:58;;;;;;;1999.90;999.90;;;;;;;7.43;100.00;101212.28;5010012;28;20060;-84
2022/02/08 11:32:49;;;;;;;1999.90;999.90;;;;;;;7.43;100.00;101198.75;5014947;28;20045;-83
2022/02/08 11:44:27;;;;;;;1999.90;999.90;;;;;;;7.49;100.00;101211.31;5011010;28;20054;-84
2022/02/08 11:50:08;;;;;;;1999.90;999.90;;;;;;;7.47;100.00;101213.44;5037328;28;20081;-83
2022/02/08 11:55:47;;;;;;;1999.90;999.90;;;;;;;7.37;100.00;101203.25;5016970;28;20073;-83
2022/02/08 11:58:26;;;;;;;1999.90;999.90;;;;;;;7.39;100.00;101221.97;5007961;28;20427;-83
2022/02/08 12:01:05;;;;;;;1999.90;999.90;;;;;;;7.41;100.00;101223.38;5009250;28;20402;-82
2022/02/08 12:06:32;;;;;;;1999.90;999.90;;;;;;;7.45;100.00;101221.81;5009498;28;20064;-82
2022/02/08 12:09:07;;;;;;;1999.90;999.90;;;;;;;7.51;100.00;101216.50;5013464;28;20060;-84
2022/02/08 12:12:02;;;;;;;1999.90;999.90;;;;;;;7.56;100.00;101224.72;5006570;28;20053;-83
2022/02/08 12:34:44;;;;;;;1999.90;999.90;;;;;;;7.60;100.00;101234.78;5013580;28;20266;-83
2022/02/08 12:55:07;;;;;;;1999.90;999.90;;;;;;;7.59;100.00;101252.09;5017744;28;20581;-84
2022/02/08 12:57:49;;;;;;;1999.90;999.90;;;;;;;7.51;100.00;101252.50;5006492;28;20068;-83
2022/02/08 13:00:34;;;;;;;1999.90;999.90;;;;;;;7.65;100.00;101256.56;5009738;28;20075;-83
2022/02/08 13:03:20;;;;;;;1999.90;999.90;;;;;;;7.55;100.00;101264.50;5012317;28;20049;-83
2022/02/08 14:04:25;;;;;;;1999.90;999.90;;;;;;;7.52;100.00;101297.50;5030890;28;20091;-83
2022/02/08 14:06:57;;;;;;;1999.90;999.90;;;;;;;7.45;100.00;101289.50;5022535;28;20061;-82
2022/02/08 14:18:43;;;;;;;1999.90;999.90;;;;;;;7.45;100.00;101308.47;4989288;28;20931;-83
2022/02/08 14:21:23;;;;;;;1999.90;999.90;;;;;;;7.52;100.00;101310.22;5007997;28;20057;-83
2022/02/08 14:23:57;;;;;;;1999.90;999.90;;;;;;;7.52;100.00;101323.78;5007400;28;20087;-83
2022/02/08 14:32:23;;;;;;;1999.90;999.90;;;;;;;7.59;100.00;101317.13;5016383;28;20069;-83
2022/02/08 14:58:26;;;;;;;1999.90;999.90;;;;;;;7.42;100.00;101316.28;5045272;28;20052;-84
2022/02/08 15:05:26;;;;;;;1999.90;999.90;;;;;;;7.51;100.00;101331.06;5047480;28;20045;-83
2022/02/08 15:06:45;;;;;;;1999.90;999.90;;;;;;;7.42;100.00;101327.94;5046007;28;19928;-81
2022/02/08 15:09:23;;;;;;;1999.90;999.90;;;;;;;7.39;100.00;101327.56;5048958;28;20059;-83
2022/02/08 15:12:07;;;;;;;1999.90;999.90;;;;;;;7.39;100.00;101327.56;5043997;28;20061;-83
2022/02/08 15:14:39;;;;;;;1999.90;999.90;;;;;;;7.42;100.00;101327.13;5044841;28;20143;-83
2022/02/08 15:17:13;;;;;;;1999.90;999.90;;;;;;;7.36;100.00;101322.66;5043149;28;20044;-82
2022/02/08 15:19:49;;;;;;;1999.90;999.90;;;;;;;7.45;100.00;101324.72;5042344;28;20076;-82
2022/02/08 15:22:22;;;;;;;1999.90;999.90;;;;;;;7.47;100.00;101324.47;5047072;28;20049;-82
2022/02/08 15:24:58;;;;;;;1999.90;999.90;;;;;;;7.34;100.00;101330.22;5041223;28;20060;-83
2022/02/08 15:27:35;;;;;;;1999.90;999.90;;;;;;;7.46;100.00;101323.66;5051925;28;20052;-83
2022/02/08 15:30:09;;;;;;;1999.90;999.90;;;;;;;7.36;100.00;101326.19;5041444;28;20056;-83